Kuttawa, KY (42055)

2:26 PM CST on January 26, 2015 (GMT -0600)
The Ridge Eddycreek | Change Station
CLOSE
Current Station
Personal Weather Station
Location: Eddyville, KY
Elevation: 471 ft
Nearby Weather Stations

Elev 471 ft 37.02 °N, 88.01 °W | Updated 54 seconds ago

Overcast
Overcast
36.0 °F
Feels Like 31 °F
N
6.0
Wind Variable Wind from NW
Gusts 10.0 mph

Today
High -- | Low -- °F
--% Chance of Precip.
Yesterday
High -- | Low -- °F
Precip. -- in
6:59 AM 5:10 PM
Waxing Crescent, 46% visible
Pressure 29.95 in
Visibility 10.0 miles
Clouds Scattered Clouds 2700 ft
Scattered Clouds 3600 ft
Overcast 4800 ft
Windchill 31 °F
Dew Point 28 °F
Humidity 72%
Rainfall 0.00 in
Snow Depth Not available.
UV 1 out of 12
Pollen .10 out of 12
Air Quality Not available.
Flu Activity Not available.
METAR K5M9 262015Z AUTO 28005KT 10SM SCT027 SCT036 OVC048 01/M04 A2995 RMK AO2 T00071037

More Conditions Fewer Conditions

Pressure 29.95 in
Visibility 10.0 miles
Clouds Scattered Clouds 2700 ft
Scattered Clouds 3600 ft
Overcast 4800 ft
Windchill 31 °F
Dew Point 28 °F
Humidity 72%
Rainfall 0.00 in
Snow Depth Not available.
UV 1 out of 12
Pollen .10 out of 12
Air Quality Not available.
Flu Activity Not available.
METAR K5M9 262015Z AUTO 28005KT 10SM SCT027 SCT036 OVC048 01/M04 A2995 RMK AO2 T00071037

More Conditions Fewer Conditions

10-Day Weather Forecast

Almanac

Astronomy

Jan. 26, 2015 Rise Set
Actual Time
Civil Twilight
Nautical Twilight
Astronomical Twilight
Moon
Length of Visible Light
Length of Day
Tomorrow will be .
, % of the Moon is Illuminated

Today's Extremes

State Highs State Lows

Community

WunderPhotos

Upload Photos

1,790,350 photos uploaded!

WunderBlogs® & News

Nearby

Air Quality

  Air Quality AQ Index Pollutant
Not available.

Snow Depth

Station Depth Elevation

Earthquake Activity

City Distance Mag. Time & Date
Minimum magnitude displayed is 2.5.

Coastal Water Temperatures

Place Temperature

Nearby Weather Stations